createdAt,value
2023-03-03T00:02:20.615Z,2.6
2023-03-03T00:08:13.569Z,2.6
2023-03-03T00:14:06.393Z,2.7
2023-03-03T00:19:59.946Z,2.6
2023-03-03T00:25:53.010Z,2.7
2023-03-03T00:31:14.859Z,2.7
2023-03-03T00:36:51.364Z,2.7
2023-03-03T00:42:44.350Z,2.7
2023-03-03T00:48:37.298Z,2.7
2023-03-03T00:54:31.160Z,2.8
2023-03-03T00:59:53.434Z,2.8
2023-03-03T01:05:46.822Z,2.8
2023-03-03T01:11:23.919Z,2.8
2023-03-03T01:17:02.307Z,2.8
2023-03-03T01:22:39.966Z,2.8
2023-03-03T01:28:01.553Z,2.8
2023-03-03T01:33:23.886Z,2.8
2023-03-03T01:39:00.814Z,2.8
2023-03-03T01:44:37.699Z,2.8
2023-03-03T01:49:59.009Z,2.8
2023-03-03T01:55:20.619Z,2.8
2023-03-03T02:00:41.158Z,2.8
2023-03-03T02:06:03.816Z,2.8
2023-03-03T02:11:26.213Z,2.8
2023-03-03T02:16:47.390Z,2.8
2023-03-03T02:21:53.570Z,2.8
2023-03-03T02:26:59.594Z,2.7
2023-03-03T02:32:20.404Z,2.7
2023-03-03T02:37:58.468Z,2.7
2023-03-03T02:43:35.491Z,2.6
2023-03-03T02:49:28.064Z,2.7
2023-03-03T02:55:05.360Z,2.6
2023-03-03T03:00:42.554Z,2.6
2023-03-03T03:06:19.219Z,2.6
2023-03-03T03:11:40.993Z,2.6
2023-03-03T03:17:18.049Z,2.6
2023-03-03T03:22:55.133Z,2.6
2023-03-03T03:28:32.997Z,2.6
2023-03-03T03:34:26.085Z,2.6
2023-03-03T03:40:02.354Z,2.6
2023-03-03T03:45:39.564Z,2.6
2023-03-03T03:51:31.749Z,2.6
2023-03-03T03:57:09.201Z,2.6
2023-03-03T04:02:47.317Z,2.6
2023-03-03T04:08:40.036Z,2.6
2023-03-03T04:14:32.333Z,2.6
2023-03-03T04:20:13.886Z,2.5
2023-03-03T04:26:06.876Z,2.5
2023-03-03T04:37:37.121Z,2.5
2023-03-03T04:43:32.034Z,2.4
2023-03-03T04:49:27.222Z,2.4
2023-03-03T04:55:20.149Z,2.4
2023-03-03T05:00:56.936Z,2.4
2023-03-03T05:06:35.465Z,2.4
2023-03-03T05:12:28.986Z,2.4
2023-03-03T05:18:22.191Z,2.4
2023-03-03T05:24:14.903Z,2.4
2023-03-03T05:30:08.207Z,2.4
2023-03-03T05:36:02.097Z,2.4
2023-03-03T05:41:39.753Z,2.5
2023-03-03T05:47:33.177Z,2.6
2023-03-03T05:53:26.010Z,2.7
2023-03-03T05:59:18.387Z,2.8
2023-03-03T06:05:12.498Z,3.1
2023-03-03T06:10:50.462Z,3.3
2023-03-03T06:16:44.910Z,3.7
2023-03-03T06:22:39.124Z,3.9
2023-03-03T06:28:32.180Z,4.2
2023-03-03T06:34:09.526Z,4.4
2023-03-03T06:40:03.433Z,4.6
2023-03-03T06:45:56.765Z,4.9
2023-03-03T06:51:34.041Z,5.2
2023-03-03T06:57:27.084Z,5.4
2023-03-03T07:03:06.250Z,5.6
2023-03-03T07:08:58.214Z,5.7
2023-03-03T07:14:54.090Z,5.9
2023-03-03T07:20:48.132Z,6.1
2023-03-03T07:26:41.571Z,6.3
2023-03-03T07:32:18.952Z,6.5
2023-03-03T07:38:12.851Z,6.7
2023-03-03T07:44:09.036Z,7
2023-03-03T07:50:02.307Z,7.3
2023-03-03T07:55:55.398Z,7.6
2023-03-03T08:01:47.627Z,7.8
2023-03-03T08:07:27.200Z,7.9
2023-03-03T08:13:20.409Z,8.1
2023-03-03T08:19:13.491Z,8.3
2023-03-03T08:25:06.518Z,8.4
2023-03-03T08:31:13.169Z,8.5
2023-03-03T08:37:18.655Z,8.7
2023-03-03T08:43:12.337Z,8.9
2023-03-03T08:49:06.109Z,9.1
2023-03-03T08:54:59.230Z,9.4
2023-03-03T09:01:07.162Z,9.9
2023-03-03T09:07:01.209Z,10.5
2023-03-03T09:12:53.282Z,11.1
2023-03-03T09:18:46.712Z,11.8
2023-03-03T09:24:40.528Z,12.2
2023-03-03T09:30:33.183Z,12.4
2023-03-03T09:36:26.928Z,12.8
2023-03-03T09:42:19.961Z,13.1
2023-03-03T09:48:00.401Z,13.3
2023-03-03T09:53:59.234Z,13.4
2023-03-03T10:00:10.474Z,13.6
2023-03-03T10:06:08.665Z,13.8
2023-03-03T10:12:02.411Z,14.4
2023-03-03T10:17:56.566Z,15.1
2023-03-03T10:24:01.324Z,15.9
2023-03-03T10:30:08.853Z,16.4
2023-03-03T10:36:46.787Z,16.7
2023-03-03T10:42:39.983Z,16.8
2023-03-03T10:48:50.577Z,16.9
2023-03-03T10:54:43.750Z,16.8
2023-03-03T11:00:50.240Z,16.6
2023-03-03T11:06:45.446Z,16.4
2023-03-03T11:12:27.222Z,16.3
2023-03-03T11:18:20.214Z,16
2023-03-03T11:24:14.451Z,15.8
2023-03-03T11:30:07.799Z,16
2023-03-03T11:36:02.120Z,16.6
2023-03-03T11:41:40.422Z,17.1
2023-03-03T11:47:49.513Z,17.1
2023-03-03T11:53:42.587Z,17.2
2023-03-03T11:59:37.783Z,17.3
2023-03-03T12:05:33.450Z,17.2
2023-03-03T12:11:32.897Z,16.9
2023-03-03T12:17:28.849Z,16.6
2023-03-03T12:23:22.128Z,16.3
2023-03-03T12:29:15.611Z,16.1
2023-03-03T12:35:10.093Z,15.7
2023-03-03T12:41:17.661Z,15.3
2023-03-03T12:47:10.356Z,14.9
2023-03-03T12:53:15.913Z,14.6
2023-03-03T12:59:08.883Z,14.2
2023-03-03T13:05:07.463Z,13.8
2023-03-03T13:11:00.754Z,13.4
2023-03-03T13:17:19.393Z,13
2023-03-03T13:23:12.697Z,12.9
2023-03-03T13:29:06.481Z,13.4
2023-03-03T13:35:01.168Z,14.8
2023-03-03T13:40:39.021Z,16.1
2023-03-03T13:46:31.924Z,16.9
2023-03-03T13:52:24.889Z,17.3
2023-03-03T13:58:17.611Z,17.7
2023-03-03T14:04:12.205Z,17.8
2023-03-03T14:10:05.903Z,17.4
2023-03-03T14:15:58.958Z,16.9
2023-03-03T14:21:53.229Z,16.4
2023-03-03T14:27:45.869Z,15.8
2023-03-03T14:33:55.321Z,15.3
2023-03-03T14:39:48.805Z,14.7
2023-03-03T14:45:46.202Z,14.3
2023-03-03T14:51:40.146Z,13.9
2023-03-03T14:57:34.885Z,13.5
2023-03-03T15:03:13.966Z,13.2
2023-03-03T15:09:08.313Z,12.9
2023-03-03T15:14:47.328Z,12.6
2023-03-03T15:20:24.881Z,12.3
2023-03-03T15:26:15.980Z,12
2023-03-03T15:31:54.288Z,11.6
2023-03-03T15:37:34.508Z,11.3
2023-03-03T15:43:10.389Z,11
2023-03-03T15:48:50.104Z,10.7
2023-03-03T15:54:37.459Z,10.3
2023-03-03T16:00:29.828Z,10
2023-03-03T16:06:07.746Z,9.7
2023-03-03T16:12:01.164Z,9.4
2023-03-03T16:17:54.740Z,9.1
2023-03-03T16:23:48.807Z,8.9
2023-03-03T16:29:28.255Z,8.6
2023-03-03T16:35:21.281Z,8.3
2023-03-03T16:41:15.933Z,8.1
2023-03-03T16:47:08.865Z,7.8
2023-03-03T16:52:44.767Z,7.6
2023-03-03T16:58:21.954Z,7.4
2023-03-03T17:04:15.463Z,7.3
2023-03-03T17:10:20.618Z,7.1
2023-03-03T17:15:42.568Z,6.9
2023-03-03T17:21:48.680Z,6.8
2023-03-03T17:27:42.325Z,6.6
2023-03-03T17:33:36.150Z,6.4
2023-03-03T17:39:14.679Z,6.3
2023-03-03T17:45:09.932Z,6.2
2023-03-03T17:51:02.386Z,6.1
2023-03-03T17:56:55.608Z,6
2023-03-03T18:02:48.295Z,5.9
2023-03-03T18:08:44.302Z,5.8
2023-03-03T18:14:33.561Z,5.7
2023-03-03T18:20:25.792Z,5.6
2023-03-03T18:26:21.683Z,5.6
2023-03-03T18:32:15.594Z,5.5
2023-03-03T18:38:08.208Z,5.4
2023-03-03T18:44:00.442Z,5.4
2023-03-03T18:49:53.824Z,5.3
2023-03-03T18:55:45.869Z,5.3
2023-03-03T19:01:07.038Z,5.3
2023-03-03T19:07:01.304Z,5.2
2023-03-03T19:12:38.800Z,5.2
2023-03-03T19:18:15.668Z,5.1
2023-03-03T19:24:11.392Z,5.1
2023-03-03T19:30:03.907Z,5.1
2023-03-03T19:35:57.980Z,5.1
2023-03-03T19:41:54.925Z,5
2023-03-03T19:47:48.058Z,5
2023-03-03T19:53:40.454Z,4.9
2023-03-03T19:59:33.182Z,4.9
2023-03-03T20:05:25.702Z,4.9
2023-03-03T20:11:19.579Z,4.9
2023-03-03T20:17:14.537Z,4.9
2023-03-03T20:23:05.564Z,4.9
2023-03-03T20:28:59.293Z,4.8
2023-03-03T20:34:52.646Z,4.8
2023-03-03T20:40:29.419Z,4.8
2023-03-03T20:46:22.728Z,4.8
2023-03-03T20:52:16.562Z,4.8
2023-03-03T20:58:08.121Z,4.8
2023-03-03T21:03:59.783Z,4.8
2023-03-03T21:09:21.698Z,4.8
2023-03-03T21:15:14.632Z,4.8
2023-03-03T21:21:10.234Z,4.7
2023-03-03T21:26:49.892Z,4.7
2023-03-03T21:32:44.518Z,4.7
2023-03-03T21:38:39.468Z,4.6
2023-03-03T21:44:32.957Z,4.6
2023-03-03T21:50:10.459Z,4.6
2023-03-03T21:55:47.739Z,4.6
2023-03-03T22:01:41.718Z,4.6
2023-03-03T22:07:35.690Z,4.6
2023-03-03T22:13:28.333Z,4.6
2023-03-03T22:19:21.838Z,4.6
2023-03-03T22:25:14.156Z,4.6
2023-03-03T22:31:07.502Z,4.6
2023-03-03T22:37:01.893Z,4.6
2023-03-03T22:42:54.227Z,4.6
2023-03-03T22:48:46.173Z,4.6
2023-03-03T22:54:38.390Z,4.6
2023-03-03T23:00:31.092Z,4.6
2023-03-03T23:06:24.470Z,4.6
2023-03-03T23:12:02.112Z,4.6
2023-03-03T23:17:54.474Z,4.6
2023-03-03T23:23:31.847Z,4.5
2023-03-03T23:29:23.836Z,4.5
2023-03-03T23:35:00.283Z,4.4
2023-03-03T23:40:52.405Z,4.4
2023-03-03T23:46:45.567Z,4.4
2023-03-03T23:52:38.291Z,4.4
2023-03-03T23:58:30.975Z,4.4
